Time;durP1;ratioP1;P1;durP2;ratioP2;P2;SDS_P1;SDS_P2;PMS_P1;PMS_P2;Temp;Humidity;BMP_temperature;BMP_pressure;BME280_temperature;BME280_humidity;BME280_pressure;Samples;Min_cycle;Max_cycle;Signal;HPM_P1;HPM_P2
2022/01/27 00:00:59;;;;;;;23.25;11.20;;;;;;;;;;5075534;28;20031;-67
2022/01/27 00:03:42;;;;;;;18.27;8.73;;;;;;;;;;5076075;28;20109;-67
2022/01/27 00:06:10;;;;;;;14.35;7.78;;;;;;;;;;5076155;28;20090;-67
2022/01/27 00:11:09;;;;;;;15.60;8.48;;;;;;;;;;5075592;28;20028;-67
2022/01/27 00:13:44;;;;;;;20.23;9.80;;;;;;;;;;5075966;28;20016;-67
2022/01/27 00:16:24;;;;;;;20.67;10.07;;;;;;;;;;5075800;28;20443;-67
2022/01/27 00:18:51;;;;;;;21.10;11.15;;;;;;;;;;5075791;28;20051;-66
2022/01/27 00:21:21;;;;;;;17.70;9.57;;;;;;;;;;5075096;28;20056;-67
2022/01/27 00:23:48;;;;;;;18.58;9.50;;;;;;;;;;5075460;28;20024;-68
2022/01/27 00:26:15;;;;;;;19.65;10.00;;;;;;;;;;5075489;28;20059;-68
2022/01/27 00:28:42;;;;;;;20.40;11.25;;;;;;;;;;5074997;28;20100;-67
2022/01/27 00:31:08;;;;;;;44.17;39.45;;;;;;;;;;5075156;28;20128;-67
2022/01/27 00:33:35;;;;;;;33.83;30.65;;;;;;;;;;5075220;28;20107;-67
2022/01/27 00:36:01;;;;;;;21.33;10.93;;;;;;;;;;5075009;28;20435;-67
2022/01/27 00:38:27;;;;;;;20.67;12.05;;;;;;;;;;5075275;28;20077;-67
2022/01/27 00:40:53;;;;;;;18.50;9.63;;;;;;;;;;5075266;28;20027;-68
2022/01/27 00:43:20;;;;;;;20.50;9.40;;;;;;;;;;5073464;28;20136;-68
2022/01/27 00:45:46;;;;;;;17.38;9.25;;;;;;;;;;5074848;28;20041;-67
2022/01/27 00:48:15;;;;;;;19.27;10.50;;;;;;;;;;5073765;28;20389;-67
2022/01/27 00:50:41;;;;;;;16.67;9.07;;;;;;;;;;5074403;28;20040;-68
2022/01/27 00:53:24;;;;;;;46.90;42.47;;;;;;;;;;5073663;28;20024;-68
2022/01/27 00:55:51;;;;;;;16.73;8.75;;;;;;;;;;5074754;28;20017;-68
2022/01/27 00:58:42;;;;;;;26.85;18.73;;;;;;;;;;5074795;28;20016;-68
2022/01/27 01:01:12;;;;;;;19.65;9.45;;;;;;;;;;5074884;28;20048;-68
2022/01/27 01:03:42;;;;;;;15.63;8.52;;;;;;;;;;5074711;28;20499;-68
2022/01/27 01:19:21;;;;;;;19.88;15.43;;;;;;;;;;5074101;28;20111;-68
2022/01/27 01:35:10;;;;;;;16.42;8.15;;;;;;;;;;5074125;28;20024;-68
2022/01/27 01:37:39;;;;;;;19.13;9.90;;;;;;;;;;5074210;28;20016;-67
2022/01/27 01:40:06;;;;;;;18.23;8.82;;;;;;;;;;5073614;28;20531;-67
2022/01/27 01:42:33;;;;;;;17.48;8.52;;;;;;;;;;5073941;28;20025;-68
2022/01/27 01:45:04;;;;;;;16.85;9.52;;;;;;;;;;5072628;28;20024;-67
2022/01/27 01:47:30;;;;;;;20.17;10.20;;;;;;;;;;5073679;28;20081;-69
2022/01/27 01:49:56;;;;;;;19.80;10.50;;;;;;;;;;5073891;28;20527;-68
2022/01/27 01:52:23;;;;;;;20.15;8.68;;;;;;;;;;5073573;28;20033;-68
2022/01/27 01:54:49;;;;;;;20.35;9.68;;;;;;;;;;5073892;28;20081;-68
2022/01/27 01:57:15;;;;;;;22.25;9.32;;;;;;;;;;5074040;28;20029;-68
2022/01/27 01:59:41;;;;;;;17.55;8.95;;;;;;;;;;5073309;28;20099;-68
2022/01/27 02:02:12;;;;;;;20.67;9.50;;;;;;;;;;5073667;28;20030;-68
2022/01/27 02:04:38;;;;;;;20.05;9.13;;;;;;;;;;5072401;28;20035;-68
2022/01/27 02:07:10;;;;;;;18.85;8.88;;;;;;;;;;5073295;28;20456;-68
2022/01/27 02:10:03;;;;;;;20.77;9.10;;;;;;;;;;5074088;28;20476;-68
2022/01/27 02:18:01;;;;;;;25.48;12.32;;;;;;;;;;5073561;28;20129;-68
2022/01/27 02:20:28;;;;;;;33.22;15.00;;;;;;;;;;5072086;28;20031;-68
2022/01/27 02:22:54;;;;;;;32.08;14.95;;;;;;;;;;5073554;28;20020;-68
2022/01/27 02:25:20;;;;;;;25.38;13.50;;;;;;;;;;5073534;28;20016;-67
2022/01/27 02:27:46;;;;;;;25.05;12.75;;;;;;;;;;5072994;28;20056;-68
2022/01/27 02:30:13;;;;;;;19.77;11.70;;;;;;;;;;5073301;28;20119;-67
2022/01/27 02:32:39;;;;;;;23.40;11.05;;;;;;;;;;5072055;28;20029;-68
2022/01/27 02:35:06;;;;;;;17.77;9.02;;;;;;;;;;5073058;28;20052;-67
2022/01/27 02:37:32;;;;;;;18.52;9.57;;;;;;;;;;5073267;28;20483;-68
2022/01/27 02:39:58;;;;;;;21.85;9.02;;;;;;;;;;5073720;28;20485;-68
2022/01/27 02:42:37;;;;;;;22.33;10.80;;;;;;;;;;5073010;28;20029;-67
2022/01/27 02:45:09;;;;;;;23.08;11.60;;;;;;;;;;5073247;28;20074;-67
2022/01/27 02:47:36;;;;;;;19.23;10.02;;;;;;;;;;5073048;28;20041;-67
2022/01/27 02:50:02;;;;;;;23.38;11.93;;;;;;;;;;5071391;28;20085;-68
2022/01/27 02:52:28;;;;;;;29.67;11.15;;;;;;;;;;5071880;28;20028;-68
2022/01/27 02:54:55;;;;;;;18.23;9.38;;;;;;;;;;5071990;28;20042;-68
2022/01/27 02:57:21;;;;;;;19.65;10.40;;;;;;;;;;5072748;28;20480;-68
2022/01/27 02:59:48;;;;;;;19.85;9.07;;;;;;;;;;5073144;28;20103;-68
2022/01/27 03:02:15;;;;;;;33.88;29.60;;;;;;;;;;5073033;28;20044;-67
2022/01/27 03:04:41;;;;;;;22.58;14.65;;;;;;;;;;5072655;28;20107;-68
2022/01/27 03:07:07;;;;;;;19.70;10.55;;;;;;;;;;5073262;28;20025;-68
2022/01/27 03:09:34;;;;;;;23.05;12.30;;;;;;;;;;5072806;28;20028;-68
2022/01/27 03:12:02;;;;;;;17.00;9.05;;;;;;;;;;5072975;28;20028;-68
2022/01/27 03:14:29;;;;;;;22.25;10.25;;;;;;;;;;5072905;28;20021;-68
2022/01/27 03:16:57;;;;;;;15.45;8.75;;;;;;;;;;5072805;28;20021;-67
2022/01/27 03:19:24;;;;;;;21.38;10.25;;;;;;;;;;5072927;28;20123;-67
2022/01/27 03:21:50;;;;;;;20.98;9.13;;;;;;;;;;5072885;28;20078;-67
2022/01/27 03:24:18;;;;;;;21.92;9.20;;;;;;;;;;5072705;28;20389;-67
2022/01/27 03:26:45;;;;;;;15.15;8.05;;;;;;;;;;5071753;28;20108;-67
2022/01/27 03:29:11;;;;;;;15.88;7.30;;;;;;;;;;5073042;28;20031;-67
2022/01/27 03:31:37;;;;;;;17.48;9.48;;;;;;;;;;5073231;28;20041;-67
2022/01/27 03:34:03;;;;;;;15.05;8.20;;;;;;;;;;5076419;28;20032;-67
2022/01/27 03:36:30;;;;;;;15.82;7.72;;;;;;;;;;5076737;28;20021;-67
2022/01/27 03:38:56;;;;;;;18.00;9.98;;;;;;;;;;5076030;28;20086;-67
2022/01/27 03:41:23;;;;;;;19.17;10.57;;;;;;;;;;5076367;28;20107;-67
2022/01/27 03:43:50;;;;;;;20.75;10.90;;;;;;;;;;5076357;28;20044;-67
2022/01/27 03:46:17;;;;;;;22.92;11.95;;;;;;;;;;5075722;28;20048;-67
2022/01/27 03:48:43;;;;;;;29.15;13.48;;;;;;;;;;5074959;28;20412;-67
2022/01/27 03:51:09;;;;;;;31.40;15.23;;;;;;;;;;5076102;28;20033;-68
2022/01/27 03:53:35;;;;;;;27.73;12.98;;;;;;;;;;5075652;28;20020;-69
2022/01/27 03:56:02;;;;;;;27.75;15.23;;;;;;;;;;5076035;28;20408;-68
2022/01/27 03:58:28;;;;;;;25.50;13.43;;;;;;;;;;5075996;28;20027;-68
2022/01/27 04:00:54;;;;;;;29.52;13.65;;;;;;;;;;5075560;28;20048;-67
2022/01/27 04:03:22;;;;;;;25.13;12.52;;;;;;;;;;5075924;28;20044;-67
2022/01/27 04:05:52;;;;;;;25.52;12.10;;;;;;;;;;5075572;28;20099;-67
2022/01/27 04:08:20;;;;;;;31.25;14.45;;;;;;;;;;5076046;28;20024;-68
2022/01/27 04:10:46;;;;;;;29.17;12.07;;;;;;;;;;5075672;28;20036;-67
2022/01/27 04:13:12;;;;;;;23.13;11.27;;;;;;;;;;5075569;28;20056;-67
2022/01/27 04:15:40;;;;;;;19.45;9.93;;;;;;;;;;5075715;28;20025;-67
2022/01/27 04:18:07;;;;;;;19.05;8.98;;;;;;;;;;5075677;28;20099;-68
2022/01/27 04:20:33;;;;;;;18.00;10.13;;;;;;;;;;5074259;28;20429;-67
2022/01/27 04:23:00;;;;;;;20.02;9.93;;;;;;;;;;5075580;28;20031;-67
2022/01/27 04:25:26;;;;;;;18.17;9.90;;;;;;;;;;5075707;28;20051;-67
2022/01/27 04:27:57;;;;;;;22.80;10.75;;;;;;;;;;5075245;28;20027;-68
2022/01/27 04:30:25;;;;;;;20.48;10.10;;;;;;;;;;5075569;28;20033;-67
2022/01/27 04:32:58;;;;;;;20.80;11.65;;;;;;;;;;5075402;28;20032;-68
2022/01/27 04:35:27;;;;;;;29.25;13.48;;;;;;;;;;5074902;28;20073;-67
2022/01/27 04:40:47;;;;;;;46.17;20.80;;;;;;;;;;5075600;28;20544;-67
2022/01/27 04:48:39;;;;;;;30.15;14.57;;;;;;;;;;5075003;28;20542;-67
2022/01/27 04:51:08;;;;;;;22.58;12.88;;;;;;;;;;5075093;28;20123;-68
2022/01/27 04:53:41;;;;;;;22.25;12.20;;;;;;;;;;5075017;28;20016;-68
2022/01/27 04:56:12;;;;;;;25.50;12.45;;;;;;;;;;5074753;28;20421;-68
2022/01/27 04:58:38;;;;;;;26.30;11.75;;;;;;;;;;5075254;28;20483;-68
2022/01/27 05:01:05;;;;;;;21.63;9.82;;;;;;;;;;5075307;28;20094;-67
2022/01/27 05:03:46;;;;;;;19.52;9.07;;;;;;;;;;5074420;28;20082;-67
2022/01/27 05:06:13;;;;;;;19.10;9.85;;;;;;;;;;5074741;28;20523;-68
2022/01/27 05:08:39;;;;;;;18.83;10.73;;;;;;;;;;5074636;28;20469;-67
2022/01/27 05:11:15;;;;;;;23.55;10.85;;;;;;;;;;5074135;28;20396;-68
2022/01/27 05:13:50;;;;;;;25.17;11.15;;;;;;;;;;5074556;28;20062;-68
2022/01/27 05:16:16;;;;;;;19.17;9.93;;;;;;;;;;5074279;28;20027;-68
2022/01/27 05:18:43;;;;;;;17.92;9.65;;;;;;;;;;5074825;28;20039;-68
2022/01/27 05:21:09;;;;;;;20.30;10.05;;;;;;;;;;5074464;28;20016;-68
2022/01/27 05:23:35;;;;;;;18.08;8.77;;;;;;;;;;5074120;28;20027;-68
2022/01/27 05:26:01;;;;;;;19.77;9.80;;;;;;;;;;5074265;28;20028;-67
2022/01/27 05:28:27;;;;;;;17.80;10.05;;;;;;;;;;5074508;28;20056;-67
2022/01/27 05:30:54;;;;;;;20.20;10.15;;;;;;;;;;5073832;28;20028;-69
2022/01/27 05:33:20;;;;;;;19.27;10.15;;;;;;;;;;5074164;28;20020;-68
2022/01/27 05:35:46;;;;;;;21.90;12.27;;;;;;;;;;5074262;28;20028;-71
2022/01/27 05:38:13;;;;;;;21.27;9.75;;;;;;;;;;5073964;28;20059;-68
2022/01/27 05:40:39;;;;;;;20.17;10.00;;;;;;;;;;5074012;28;20029;-68
2022/01/27 05:43:06;;;;;;;20.98;10.80;;;;;;;;;;5074048;28;20024;-68
2022/01/27 05:45:33;;;;;;;17.65;10.95;;;;;;;;;;5073462;28;20017;-68
2022/01/27 05:47:59;;;;;;;27.63;14.88;;;;;;;;;;5074048;28;20509;-68
2022/01/27 05:50:25;;;;;;;31.35;14.60;;;;;;;;;;5073946;28;20036;-66
2022/01/27 05:52:51;;;;;;;41.42;19.80;;;;;;;;;;5073435;28;20493;-66
2022/01/27 05:55:18;;;;;;;60.20;23.08;;;;;;;;;;5073831;28;20031;-68
2022/01/27 05:57:44;;;;;;;67.18;30.48;;;;;;;;;;5072481;28;20026;-66
2022/01/27 06:00:10;;;;;;;68.43;28.50;;;;;;;;;;5073827;28;20354;-66
2022/01/27 06:02:37;;;;;;;59.33;27.58;;;;;;;;;;5073625;28;20062;-67
2022/01/27 06:05:04;;;;;;;55.92;26.92;;;;;;;;;;5073600;28;20071;-67
2022/01/27 06:07:31;;;;;;;74.35;26.13;;;;;;;;;;5073180;28;20058;-67
2022/01/27 06:09:58;;;;;;;47.67;23.25;;;;;;;;;;5073794;28;20024;-67
2022/01/27 06:12:24;;;;;;;59.95;28.92;;;;;;;;;;5073084;28;20078;-67
2022/01/27 06:14:51;;;;;;;47.17;22.38;;;;;;;;;;5073535;28;20025;-67
2022/01/27 06:17:17;;;;;;;37.33;17.42;;;;;;;;;;5073525;28;20024;-67
2022/01/27 06:19:44;;;;;;;35.10;17.42;;;;;;;;;;5073056;28;20095;-67
2022/01/27 06:22:11;;;;;;;32.40;17.55;;;;;;;;;;5072437;28;20389;-67
2022/01/27 06:24:39;;;;;;;34.50;18.80;;;;;;;;;;5074021;28;20119;-67
2022/01/27 06:27:06;;;;;;;41.97;23.77;;;;;;;;;;5073050;28;20032;-67
2022/01/27 06:29:32;;;;;;;59.88;33.70;;;;;;;;;;5073348;28;20031;-67
2022/01/27 06:31:59;;;;;;;57.58;31.73;;;;;;;;;;5073350;28;20032;-67
2022/01/27 06:34:25;;;;;;;58.20;35.10;;;;;;;;;;5072897;28;20028;-67
2022/01/27 06:36:51;;;;;;;52.78;32.00;;;;;;;;;;5072029;28;20028;-68
2022/01/27 06:39:17;;;;;;;55.63;34.75;;;;;;;;;;5073348;28;20025;-67
2022/01/27 06:41:44;;;;;;;56.97;35.63;;;;;;;;;;5072987;28;20052;-67
2022/01/27 06:44:11;;;;;;;70.15;40.50;;;;;;;;;;5073202;28;20024;-66
2022/01/27 06:46:37;;;;;;;63.78;39.58;;;;;;;;;;5073170;28;20051;-67
2022/01/27 06:49:04;;;;;;;60.53;39.20;;;;;;;;;;5072961;28;20021;-67
2022/01/27 06:51:31;;;;;;;58.83;35.42;;;;;;;;;;5073320;28;20036;-67
2022/01/27 06:53:58;;;;;;;58.38;32.28;;;;;;;;;;5073193;28;20021;-67
2022/01/27 06:56:24;;;;;;;45.25;25.35;;;;;;;;;;5072804;28;20025;-67
2022/01/27 06:58:50;;;;;;;41.53;23.73;;;;;;;;;;5073151;28;20031;-68
2022/01/27 07:01:17;;;;;;;42.83;24.15;;;;;;;;;;5072961;28;20068;-67
2022/01/27 07:03:43;;;;;;;42.63;22.70;;;;;;;;;;5072827;28;20025;-67
2022/01/27 07:06:09;;;;;;;44.05;24.80;;;;;;;;;;5071875;28;20108;-67
2022/01/27 07:08:35;;;;;;;40.08;22.75;;;;;;;;;;5076513;28;20027;-67
2022/01/27 07:11:02;;;;;;;40.38;24.13;;;;;;;;;;5077041;28;20032;-67
2022/01/27 07:13:28;;;;;;;73.35;38.30;;;;;;;;;;5077060;28;20056;-67
2022/01/27 07:15:55;;;;;;;55.17;32.80;;;;;;;;;;5076493;28;20081;-68
2022/01/27 07:18:21;;;;;;;67.53;33.28;;;;;;;;;;5076777;28;20020;-67
2022/01/27 07:20:48;;;;;;;43.42;23.33;;;;;;;;;;5076943;28;20032;-66
2022/01/27 07:23:14;;;;;;;40.53;25.38;;;;;;;;;;5071480;28;20614;-68
2022/01/27 07:25:40;;;;;;;40.75;24.67;;;;;;;;;;5075858;28;20032;-68
2022/01/27 07:28:06;;;;;;;37.85;22.40;;;;;;;;;;5076659;28;20098;-68
2022/01/27 07:30:33;;;;;;;37.08;20.45;;;;;;;;;;5075930;28;20506;-69
2022/01/27 07:32:59;;;;;;;30.00;18.08;;;;;;;;;;5076103;28;20066;-67
2022/01/27 07:35:25;;;;;;;36.13;20.15;;;;;;;;;;5076332;28;20033;-67
2022/01/27 07:37:52;;;;;;;38.97;22.45;;;;;;;;;;5074543;28;20035;-67
2022/01/27 07:40:18;;;;;;;25.42;15.68;;;;;;;;;;5075868;28;20052;-69
2022/01/27 07:42:44;;;;;;;35.92;21.35;;;;;;;;;;5076000;28;20024;-69
2022/01/27 07:45:10;;;;;;;33.10;17.15;;;;;;;;;;5075576;28;20112;-69
2022/01/27 07:47:37;;;;;;;29.35;18.75;;;;;;;;;;5074683;28;20493;-69
2022/01/27 07:50:03;;;;;;;43.20;23.92;;;;;;;;;;5075914;28;20028;-69
2022/01/27 07:52:30;;;;;;;35.70;17.98;;;;;;;;;;5075362;28;20021;-69
2022/01/27 07:54:56;;;;;;;41.75;22.10;;;;;;;;;;5076037;28;20020;-67
2022/01/27 07:57:22;;;;;;;40.70;21.88;;;;;;;;;;5075826;28;20024;-67
2022/01/27 07:59:48;;;;;;;33.97;20.23;;;;;;;;;;5075397;28;20096;-68
2022/01/27 08:02:15;;;;;;;47.00;23.40;;;;;;;;;;5075532;28;20032;-67
2022/01/27 08:04:42;;;;;;;44.35;22.90;;;;;;;;;;5074394;28;20381;-67
2022/01/27 08:07:10;;;;;;;34.00;18.52;;;;;;;;;;5075198;28;20468;-67
2022/01/27 08:09:36;;;;;;;28.33;15.02;;;;;;;;;;5075446;28;20103;-68
2022/01/27 08:12:03;;;;;;;30.40;18.77;;;;;;;;;;5073920;28;20034;-66
2022/01/27 08:14:29;;;;;;;40.65;20.35;;;;;;;;;;5075461;28;20020;-67
2022/01/27 08:16:55;;;;;;;31.85;18.38;;;;;;;;;;5074730;28;20384;-68
2022/01/27 08:19:21;;;;;;;34.65;17.67;;;;;;;;;;5074970;28;20047;-67
2022/01/27 08:21:47;;;;;;;47.45;24.60;;;;;;;;;;5075419;28;20381;-67
2022/01/27 08:24:15;;;;;;;48.10;24.70;;;;;;;;;;5075012;28;20461;-69
2022/01/27 08:26:44;;;;;;;49.42;23.55;;;;;;;;;;5075014;28;20028;-67
2022/01/27 08:29:59;;;;;;;33.03;18.83;;;;;;;;;;5075293;28;20029;-67
2022/01/27 08:32:06;;;;;;;36.53;15.80;;;;;;;;;;5069414;28;20040;-66
2022/01/27 08:34:36;;;;;;;37.72;19.98;;;;;;;;;;5075082;28;20024;-67
2022/01/27 08:37:06;;;;;;;23.88;13.70;;;;;;;;;;5073910;28;20025;-66
2022/01/27 08:39:33;;;;;;;22.00;12.07;;;;;;;;;;5075080;28;20427;-66
2022/01/27 08:41:59;;;;;;;21.00;11.30;;;;;;;;;;5068036;28;20271;-67
2022/01/27 08:44:26;;;;;;;25.90;14.93;;;;;;;;;;5074319;28;20024;-67
2022/01/27 08:46:52;;;;;;;23.77;12.40;;;;;;;;;;5074463;28;20044;-67
2022/01/27 08:49:21;;;;;;;24.00;13.65;;;;;;;;;;5074304;28;20028;-67
2022/01/27 08:51:47;;;;;;;16.98;9.52;;;;;;;;;;5074640;28;20040;-66
2022/01/27 08:54:14;;;;;;;24.50;13.82;;;;;;;;;;5074018;28;20067;-68
2022/01/27 08:56:40;;;;;;;23.60;12.13;;;;;;;;;;5074481;28;20100;-67
2022/01/27 08:59:06;;;;;;;27.58;12.98;;;;;;;;;;5074257;28;20028;-67
2022/01/27 09:01:33;;;;;;;27.25;14.57;;;;;;;;;;5074065;28;20443;-66
2022/01/27 09:03:59;;;;;;;19.10;11.27;;;;;;;;;;5074458;28;20461;-68
2022/01/27 09:06:28;;;;;;;14.65;9.60;;;;;;;;;;5074070;28;20042;-68
2022/01/27 09:08:55;;;;;;;28.38;12.80;;;;;;;;;;5074290;28;20400;-68
2022/01/27 09:11:21;;;;;;;27.08;14.20;;;;;;;;;;5074142;28;20036;-67
2022/01/27 09:13:48;;;;;;;28.50;15.98;;;;;;;;;;5074166;28;20054;-67
2022/01/27 09:16:16;;;;;;;39.28;17.55;;;;;;;;;;5073753;28;20028;-67
2022/01/27 09:18:42;;;;;;;23.33;10.65;;;;;;;;;;5074273;28;20020;-67
2022/01/27 09:21:14;;;;;;;18.75;11.15;;;;;;;;;;5074307;28;20104;-67
2022/01/27 09:23:41;;;;;;;22.08;12.23;;;;;;;;;;5073801;28;20459;-67
2022/01/27 09:26:21;;;;;;;23.48;12.95;;;;;;;;;;5073739;28;20393;-67
2022/01/27 09:28:48;;;;;;;20.27;9.95;;;;;;;;;;5074007;28;20124;-68
2022/01/27 09:31:14;;;;;;;17.25;9.20;;;;;;;;;;5073336;28;20033;-68
2022/01/27 09:33:40;;;;;;;20.50;9.98;;;;;;;;;;5073934;28;20044;-67
2022/01/27 09:36:11;;;;;;;18.42;9.90;;;;;;;;;;5073786;28;20017;-66
2022/01/27 09:38:37;;;;;;;19.05;10.60;;;;;;;;;;5073839;28;20046;-67
2022/01/27 09:41:06;;;;;;;15.32;8.75;;;;;;;;;;5073820;28;20025;-68
2022/01/27 09:43:32;;;;;;;15.02;8.52;;;;;;;;;;5073159;28;20385;-66
2022/01/27 09:45:59;;;;;;;16.67;8.82;;;;;;;;;;5073267;28;20489;-66
2022/01/27 09:48:30;;;;;;;23.25;12.30;;;;;;;;;;5073540;28;20104;-67
2022/01/27 09:53:25;;;;;;;26.42;13.32;;;;;;;;;;5073583;28;20027;-67
2022/01/27 09:55:51;;;;;;;35.33;15.45;;;;;;;;;;5073508;28;20033;-67
2022/01/27 09:58:17;;;;;;;20.27;10.73;;;;;;;;;;5071717;28;20025;-67
2022/01/27 10:00:44;;;;;;;24.65;11.75;;;;;;;;;;5073499;28;20025;-66
2022/01/27 10:03:13;;;;;;;30.17;15.10;;;;;;;;;;5073377;28;20420;-67
2022/01/27 10:05:39;;;;;;;31.02;14.40;;;;;;;;;;5072882;28;20097;-66
2022/01/27 10:08:11;;;;;;;36.10;19.17;;;;;;;;;;5073354;28;20532;-65
2022/01/27 10:10:40;;;;;;;19.60;11.18;;;;;;;;;;5072133;28;20404;-65
2022/01/27 10:13:08;;;;;;;15.20;8.57;;;;;;;;;;5072898;28;20028;-66
2022/01/27 10:15:41;;;;;;;23.05;11.90;;;;;;;;;;5073658;28;20119;-67
2022/01/27 10:18:09;;;;;;;25.08;13.52;;;;;;;;;;5073285;28;20473;-68
2022/01/27 10:20:36;;;;;;;21.55;12.57;;;;;;;;;;5073045;28;20028;-67
2022/01/27 10:23:22;;;;;;;18.25;9.98;;;;;;;;;;5073094;28;20096;-67
2022/01/27 10:25:53;;;;;;;25.77;13.98;;;;;;;;;;5072666;28;20353;-67
2022/01/27 10:28:58;;;;;;;24.20;13.75;;;;;;;;;;5073233;28;20021;-68
2022/01/27 10:31:26;;;;;;;31.50;17.08;;;;;;;;;;5073218;28;20093;-67
2022/01/27 10:33:53;;;;;;;25.50;13.68;;;;;;;;;;5072690;28;20099;-64
2022/01/27 10:36:19;;;;;;;24.70;12.25;;;;;;;;;;5072937;28;20048;-66
2022/01/27 10:38:45;;;;;;;25.00;14.13;;;;;;;;;;5073048;28;20044;-67
2022/01/27 10:41:12;;;;;;;29.75;13.27;;;;;;;;;;5073069;28;20433;-68
2022/01/27 10:43:40;;;;;;;38.85;35.42;;;;;;;;;;5077156;28;20121;-67
2022/01/27 10:46:30;;;;;;;26.10;12.90;;;;;;;;;;5076579;28;20045;-66
2022/01/27 10:49:06;;;;;;;13.55;6.03;;;;;;;;;;5076268;28;20082;-67
2022/01/27 10:51:41;;;;;;;13.55;7.40;;;;;;;;;;5077154;28;20054;-67
2022/01/27 10:54:23;;;;;;;19.77;10.88;;;;;;;;;;5076550;28;20361;-66
2022/01/27 10:56:50;;;;;;;19.65;8.60;;;;;;;;;;5077134;28;20028;-66
2022/01/27 10:59:20;;;;;;;98.88;90.05;;;;;;;;;;5076940;28;20073;-69
2022/01/27 11:01:50;;;;;;;17.42;7.88;;;;;;;;;;5076547;28;20025;-69
2022/01/27 11:04:17;;;;;;;12.02;6.75;;;;;;;;;;5076479;28;20481;-69
2022/01/27 11:06:55;;;;;;;14.25;9.15;;;;;;;;;;5076731;28;20381;-68
2022/01/27 11:09:22;;;;;;;240.60;225.20;;;;;;;;;;5076566;28;20495;-67
2022/01/27 11:11:49;;;;;;;308.33;276.90;;;;;;;;;;5076660;28;20040;-67
2022/01/27 11:14:16;;;;;;;38.35;34.67;;;;;;;;;;5076373;28;20495;-67
2022/01/27 11:16:44;;;;;;;313.33;286.10;;;;;;;;;;5076188;28;20097;-67
2022/01/27 11:22:06;;;;;;;285.52;263.02;;;;;;;;;;5076053;28;20028;-66
2022/01/27 11:25:05;;;;;;;28.35;14.93;;;;;;;;;;5076321;28;20024;-66
2022/01/27 11:27:21;;;;;;;21.08;11.63;;;;;;;;;;5075337;28;20086;-65
2022/01/27 11:29:49;;;;;;;22.02;15.85;;;;;;;;;;5082098;28;20170;-67
2022/01/27 11:32:36;;;;;;;17.92;10.20;;;;;;;;;;5096351;28;20055;-68
2022/01/27 11:35:15;;;;;;;31.15;19.10;;;;;;;;;;5096098;28;20052;-65
2022/01/27 11:37:41;;;;;;;21.98;12.38;;;;;;;;;;5094534;28;20060;-66
2022/01/27 11:40:12;;;;;;;24.58;18.33;;;;;;;;;;5096322;28;20028;-63
2022/01/27 11:42:38;;;;;;;16.73;8.68;;;;;;;;;;5096279;28;20020;-66
2022/01/27 11:45:23;;;;;;;24.77;12.27;;;;;;;;;;5095535;28;20020;-66
2022/01/27 11:47:50;;;;;;;196.45;160.43;;;;;;;;;;5076445;28;20036;-67
2022/01/27 11:50:32;;;;;;;21.77;13.13;;;;;;;;;;5074918;28;20032;-66
2022/01/27 11:53:00;;;;;;;22.00;11.00;;;;;;;;;;5075223;28;20146;-67
2022/01/27 11:55:26;;;;;;;16.70;8.23;;;;;;;;;;5076033;28;20020;-67
2022/01/27 11:57:54;;;;;;;25.40;13.35;;;;;;;;;;5075736;28;20024;-68
2022/01/27 12:00:24;;;;;;;23.40;10.57;;;;;;;;;;5075997;28;20043;-67
2022/01/27 12:03:02;;;;;;;14.77;8.55;;;;;;;;;;5075956;28;20030;-67
2022/01/27 12:05:29;;;;;;;19.15;11.23;;;;;;;;;;5075507;28;20013;-67
2022/01/27 12:08:13;;;;;;;27.50;13.18;;;;;;;;;;5075893;28;20444;-67
2022/01/27 12:10:40;;;;;;;17.77;8.07;;;;;;;;;;5075737;28;20507;-67
2022/01/27 12:13:31;;;;;;;15.80;6.97;;;;;;;;;;5075398;28;20096;-67
2022/01/27 12:18:58;;;;;;;14.20;7.38;;;;;;;;;;5075220;28;20050;-68
2022/01/27 12:21:32;;;;;;;17.92;10.77;;;;;;;;;;5075707;28;20362;-68
2022/01/27 12:24:21;;;;;;;15.70;8.27;;;;;;;;;;5075563;28;20063;-69
2022/01/27 12:26:58;;;;;;;23.48;9.00;;;;;;;;;;5075187;28;20088;-68
2022/01/27 12:29:24;;;;;;;21.65;9.82;;;;;;;;;;5075441;28;20020;-69
2022/01/27 12:31:51;;;;;;;21.35;10.80;;;;;;;;;;5075353;28;20519;-68
2022/01/27 12:34:18;;;;;;;17.83;8.43;;;;;;;;;;5075103;28;20491;-68
2022/01/27 12:36:58;;;;;;;17.52;7.88;;;;;;;;;;5074035;28;20115;-68
2022/01/27 12:39:25;;;;;;;12.60;7.38;;;;;;;;;;5074823;28;20029;-68
2022/01/27 12:41:53;;;;;;;279.98;262.92;;;;;;;;;;5075206;28;20029;-69
2022/01/27 12:44:20;;;;;;;13.23;7.25;;;;;;;;;;5075147;28;20021;-68
2022/01/27 12:47:02;;;;;;;20.25;6.80;;;;;;;;;;5074635;28;20052;-68
2022/01/27 12:49:48;;;;;;;19.63;9.97;;;;;;;;;;5075115;28;20028;-68
2022/01/27 12:52:16;;;;;;;22.30;11.57;;;;;;;;;;5075050;28;20036;-69
2022/01/27 12:54:43;;;;;;;19.70;10.80;;;;;;;;;;5074682;28;20062;-68
2022/01/27 12:57:10;;;;;;;25.05;12.35;;;;;;;;;;5075088;28;20025;-68
2022/01/27 12:59:38;;;;;;;30.83;14.98;;;;;;;;;;5074809;28;20021;-67
2022/01/27 13:02:08;;;;;;;24.30;11.25;;;;;;;;;;5074333;28;20028;-67
2022/01/27 13:04:35;;;;;;;26.00;15.27;;;;;;;;;;5073932;28;20070;-70
2022/01/27 13:07:02;;;;;;;20.48;9.10;;;;;;;;;;5074885;28;20016;-70
2022/01/27 13:09:29;;;;;;;17.55;7.72;;;;;;;;;;5074310;28;20500;-70
2022/01/27 13:11:57;;;;;;;23.52;11.13;;;;;;;;;;5074601;28;20039;-69
2022/01/27 13:14:24;;;;;;;18.20;10.50;;;;;;;;;;5074166;28;20020;-68
2022/01/27 13:16:57;;;;;;;28.15;12.52;;;;;;;;;;5074505;28;20124;-69
2022/01/27 13:19:46;;;;;;;16.08;9.23;;;;;;;;;;5074486;28;20033;-69
2022/01/27 13:22:17;;;;;;;386.60;348.35;;;;;;;;;;5074193;28;20028;-69
2022/01/27 13:24:47;;;;;;;24.92;12.98;;;;;;;;;;5074426;28;20424;-69
2022/01/27 13:27:14;;;;;;;32.80;15.93;;;;;;;;;;5074357;28;20029;-69
2022/01/27 13:29:45;;;;;;;44.00;19.80;;;;;;;;;;5073842;28;20017;-69
2022/01/27 13:32:12;;;;;;;38.53;19.75;;;;;;;;;;5074528;28;20512;-69
2022/01/27 13:34:42;;;;;;;35.65;19.35;;;;;;;;;;5074164;28;20025;-69
2022/01/27 13:37:09;;;;;;;30.75;16.67;;;;;;;;;;5073876;28;20032;-68
2022/01/27 13:42:20;;;;;;;26.15;14.35;;;;;;;;;;5074066;28;20539;-68
2022/01/27 13:45:00;;;;;;;26.00;13.93;;;;;;;;;;5073942;28;20031;-69
2022/01/27 13:47:28;;;;;;;27.10;14.05;;;;;;;;;;5073734;28;20040;-68
2022/01/27 13:50:04;;;;;;;27.05;14.88;;;;;;;;;;5073360;28;20025;-68
2022/01/27 13:52:39;;;;;;;25.17;14.15;;;;;;;;;;5073778;28;20040;-68
2022/01/27 13:55:07;;;;;;;21.23;11.75;;;;;;;;;;5073738;28;20047;-68
2022/01/27 13:57:47;;;;;;;29.23;15.23;;;;;;;;;;5073326;28;20099;-68
2022/01/27 14:00:17;;;;;;;24.00;13.50;;;;;;;;;;5073668;28;20021;-68
2022/01/27 14:03:26;;;;;;;24.80;13.82;;;;;;;;;;5110992;27;20123;-69
2022/01/27 14:06:03;;;;;;;19.48;11.38;;;;;;;;;;5090781;28;20016;-69
2022/01/27 14:09:17;;;;;;;17.75;10.93;;;;;;;;;;5111891;27;20736;-69
2022/01/27 14:12:04;;;;;;;19.98;10.65;;;;;;;;;;5110892;27;20426;-68
2022/01/27 14:15:03;;;;;;;25.48;13.75;;;;;;;;;;5111260;28;20051;-68
2022/01/27 14:20:00;;;;;;;19.20;12.43;;;;;;;;;;5111777;27;20434;-69
2022/01/27 14:22:31;;;;;;;21.58;12.15;;;;;;;;;;5111253;28;20077;-69
2022/01/27 14:28:19;;;;;;;23.83;13.40;;;;;;;;;;5111428;27;20396;-69
2022/01/27 14:34:29;;;;;;;32.72;18.83;;;;;;;;;;5111436;27;20458;-69
2022/01/27 14:36:55;;;;;;;25.33;15.63;;;;;;;;;;5111455;28;20032;-68
2022/01/27 14:39:21;;;;;;;38.67;22.63;;;;;;;;;;5110815;28;20410;-68
2022/01/27 14:41:47;;;;;;;31.23;17.55;;;;;;;;;;5109850;28;20395;-68
2022/01/27 14:44:14;;;;;;;30.85;18.10;;;;;;;;;;5111428;28;20028;-68
2022/01/27 14:46:43;;;;;;;25.42;15.48;;;;;;;;;;5110603;28;20016;-69
2022/01/27 14:49:12;;;;;;;26.75;17.25;;;;;;;;;;5111061;28;20024;-68
2022/01/27 14:51:39;;;;;;;25.45;17.00;;;;;;;;;;5111107;28;20506;-69
2022/01/27 14:54:49;;;;;;;31.25;18.95;;;;;;;;;;5172926;27;20124;-69
2022/01/27 14:57:15;;;;;;;37.88;21.17;;;;;;;;;;5152577;27;20035;-69
2022/01/27 15:03:43;;;;;;;36.67;21.63;;;;;;;;;;5111389;27;20109;-68
2022/01/27 15:06:09;;;;;;;41.30;24.73;;;;;;;;;;5091059;28;20534;-68
2022/01/27 15:10:41;;;;;;;45.83;27.88;;;;;;;;;;5111323;27;20393;-68
2022/01/27 15:13:12;;;;;;;44.35;24.40;;;;;;;;;;5111375;28;20028;-68
2022/01/27 15:20:07;;;;;;;70.57;40.72;;;;;;;;;;5090905;28;20044;-68
2022/01/27 15:22:35;;;;;;;45.65;28.35;;;;;;;;;;5090446;28;20025;-68
2022/01/27 15:25:01;;;;;;;62.28;37.20;;;;;;;;;;5090916;28;20411;-69
2022/01/27 15:27:27;;;;;;;53.20;31.02;;;;;;;;;;5090651;28;20054;-68
2022/01/27 15:29:53;;;;;;;58.85;31.70;;;;;;;;;;5090214;28;20431;-69
2022/01/27 15:32:21;;;;;;;100.68;52.65;;;;;;;;;;5090607;28;20020;-69
2022/01/27 15:34:48;;;;;;;113.65;55.20;;;;;;;;;;5090619;28;20024;-68
2022/01/27 15:37:15;;;;;;;107.45;50.42;;;;;;;;;;5090495;28;20032;-68
2022/01/27 15:39:48;;;;;;;104.45;58.33;;;;;;;;;;5090328;28;20024;-68
2022/01/27 15:42:15;;;;;;;94.40;48.83;;;;;;;;;;5090498;28;20504;-68
2022/01/27 15:44:44;;;;;;;105.88;57.35;;;;;;;;;;5090348;28;20024;-68